Time;durP1;ratioP1;P1;durP2;ratioP2;P2;SDS_P1;SDS_P2;PMS_P1;PMS_P2;Temp;Humidity;BMP_temperature;BMP_pressure;BME280_temperature;BME280_humidity;BME280_pressure;Samples;Min_cycle;Max_cycle;Signal;HPM_P1;HPM_P2
2022/02/01 00:02:15;;;;;;;49.53;19.27;;;2.40;99.90;;;;;;2106421;28;20027;-71
2022/02/01 00:03:16;;;;;;;51.72;20.27;;;2.40;99.90;;;;;;2105709;28;20025;-69
2022/02/01 00:04:30;;;;;;;54.97;20.30;;;2.40;99.90;;;;;;2104673;28;20028;-69
2022/02/01 00:09:21;;;;;;;49.42;19.63;;;2.40;99.90;;;;;;2105996;28;20624;-70
2022/02/01 00:13:33;;;;;;;61.40;23.08;;;2.40;99.90;;;;;;2105183;28;20035;-69
2022/02/01 00:15:05;;;;;;;58.95;23.48;;;2.40;99.90;;;;;;2105925;28;20032;-69
2022/02/01 00:16:28;;;;;;;57.10;22.33;;;2.40;99.90;;;;;;2104722;28;20028;-69
2022/02/01 00:19:04;;;;;;;55.10;23.85;;;2.40;99.90;;;;;;2099529;28;20038;-70
2022/02/01 00:35:44;;;;;;;52.75;23.75;;;2.40;99.90;;;;;;2097676;28;20064;-70
2022/02/01 00:36:52;;;;;;;56.22;23.73;;;2.40;99.90;;;;;;2098220;28;20086;-70
2022/02/01 00:38:12;;;;;;;59.13;25.52;;;2.40;99.90;;;;;;2097984;28;20067;-70
2022/02/01 00:39:14;;;;;;;56.15;24.33;;;2.50;99.90;;;;;;2097791;28;20036;-69
2022/02/01 00:40:15;;;;;;;55.22;24.83;;;2.40;99.90;;;;;;2098553;28;20408;-70
2022/02/01 00:41:18;;;;;;;64.47;25.67;;;2.40;99.90;;;;;;2097592;28;20499;-70
2022/02/01 00:42:19;;;;;;;59.10;25.17;;;2.40;99.90;;;;;;2089410;28;20075;-70
2022/02/01 00:43:22;;;;;;;62.30;25.25;;;2.40;99.90;;;;;;2097613;28;20021;-70
2022/02/01 00:44:25;;;;;;;51.72;24.20;;;2.40;99.90;;;;;;2097852;28;20029;-70
2022/02/01 00:45:26;;;;;;;57.35;25.08;;;2.40;99.90;;;;;;2097373;28;20093;-69
2022/02/01 00:46:27;;;;;;;63.50;25.80;;;2.40;99.90;;;;;;2099634;28;20130;-70
2022/02/01 00:47:28;;;;;;;62.85;26.60;;;2.40;99.90;;;;;;2093226;28;20020;-70
2022/02/01 00:48:29;;;;;;;63.15;26.10;;;2.40;99.90;;;;;;2089776;28;20108;-70
2022/02/01 00:49:32;;;;;;;64.10;26.30;;;2.40;99.90;;;;;;2097717;28;20051;-69
2022/02/01 00:50:33;;;;;;;61.25;25.27;;;2.40;99.90;;;;;;2097440;28;20012;-69
2022/02/01 00:51:34;;;;;;;61.83;25.80;;;2.30;99.90;;;;;;2096323;28;20465;-68
2022/02/01 00:52:34;;;;;;;57.50;25.38;;;2.30;99.90;;;;;;2096579;28;20032;-70
2022/02/01 00:53:37;;;;;;;57.25;24.98;;;2.30;99.90;;;;;;2096446;28;20016;-69
2022/02/01 00:54:38;;;;;;;56.20;24.40;;;2.40;99.90;;;;;;2088119;28;20086;-69
2022/02/01 00:55:39;;;;;;;60.95;24.92;;;2.40;99.90;;;;;;2096066;28;20024;-68
2022/02/01 00:56:40;;;;;;;51.05;23.70;;;2.40;99.90;;;;;;2096491;28;20454;-69
2022/02/01 00:57:40;;;;;;;52.42;23.20;;;2.40;99.90;;;;;;2096436;28;20582;-68
2022/02/01 00:58:42;;;;;;;55.72;24.52;;;2.40;99.90;;;;;;2097002;28;20032;-68
2022/02/01 00:59:43;;;;;;;64.03;24.05;;;2.40;99.90;;;;;;2096427;28;20372;-70
2022/02/01 01:00:43;;;;;;;54.78;23.80;;;2.40;99.90;;;;;;2096401;28;20032;-71
2022/02/01 01:01:44;;;;;;;54.38;25.15;;;2.40;99.90;;;;;;2096695;28;20035;-68
2022/02/01 01:02:44;;;;;;;56.15;23.83;;;2.40;99.90;;;;;;2096367;28;20341;-68
2022/02/01 01:03:45;;;;;;;51.08;22.70;;;2.40;99.90;;;;;;2088244;28;20036;-71
2022/02/01 01:04:46;;;;;;;53.97;24.33;;;2.40;99.90;;;;;;2088125;28;20028;-70
2022/02/01 01:05:47;;;;;;;61.50;24.23;;;2.50;99.90;;;;;;2096683;28;20111;-69
2022/02/01 01:06:47;;;;;;;55.70;23.58;;;2.40;99.90;;;;;;2097194;28;20047;-69
2022/02/01 01:07:48;;;;;;;62.92;23.45;;;2.40;99.90;;;;;;2097124;28;20029;-68
2022/02/01 01:08:48;;;;;;;59.33;23.77;;;2.50;99.90;;;;;;2097023;28;20013;-68
2022/02/01 01:09:49;;;;;;;55.72;23.40;;;2.50;99.90;;;;;;2096478;28;20025;-70
2022/02/01 01:10:50;;;;;;;49.38;22.38;;;2.50;99.90;;;;;;2088151;28;20040;-70
2022/02/01 01:11:54;;;;;;;58.20;22.80;;;2.40;99.90;;;;;;2096166;28;20048;-67
2022/02/01 01:13:12;;;;;;;50.78;23.27;;;2.50;99.90;;;;;;2096726;28;20534;-69
2022/02/01 01:14:44;;;;;;;55.33;23.60;;;2.40;99.90;;;;;;2090624;28;20045;-69
2022/02/01 01:15:43;;;;;;;53.10;22.98;;;2.40;99.90;;;;;;2091464;28;20037;-71
2022/02/01 01:17:11;;;;;;;58.15;24.08;;;2.40;99.90;;;;;;2097259;28;20028;-70
2022/02/01 01:44:31;;;;;;;58.42;22.23;;;2.30;99.90;;;;;;2096921;28;20458;-70
2022/02/01 01:45:39;;;;;;;51.88;21.95;;;2.30;99.90;;;;;;2095715;28;20034;-69
2022/02/01 01:53:08;;;;;;;55.00;22.35;;;2.30;99.90;;;;;;2096456;28;20089;-68
2022/02/01 01:53:20;;;;;;;59.58;22.10;;;2.30;99.90;;;;;;2097227;28;20040;-70
2022/02/01 01:54:22;;;;;;;59.00;20.80;;;2.30;99.90;;;;;;2096322;28;20407;-70
2022/02/01 01:55:22;;;;;;;55.67;20.83;;;2.40;99.90;;;;;;2096040;28;20029;-69
2022/02/01 01:56:23;;;;;;;52.30;20.95;;;2.40;99.90;;;;;;2096270;28;20564;-70
2022/02/01 01:57:24;;;;;;;47.92;21.02;;;2.40;99.90;;;;;;2088088;28;20045;-68
2022/02/01 01:58:25;;;;;;;57.00;21.35;;;2.40;99.90;;;;;;2096210;28;20389;-68
2022/02/01 01:59:27;;;;;;;57.17;21.42;;;2.40;99.90;;;;;;2096813;28;20391;-68
2022/02/01 02:01:47;;;;;;;56.22;20.60;;;2.50;99.90;;;;;;2090222;28;20064;-68
2022/02/01 02:02:48;;;;;;;66.13;22.27;;;2.50;99.90;;;;;;2096215;28;20032;-67
2022/02/01 02:03:49;;;;;;;58.33;21.98;;;2.40;99.90;;;;;;2096125;28;20017;-67
2022/02/01 02:04:50;;;;;;;60.13;21.92;;;2.40;99.90;;;;;;2087948;28;20036;-68
2022/02/01 02:05:51;;;;;;;55.00;21.95;;;2.30;99.90;;;;;;2087394;28;20119;-68
2022/02/01 02:06:53;;;;;;;64.30;22.70;;;2.40;99.90;;;;;;2096219;28;20112;-69
2022/02/01 02:07:53;;;;;;;64.63;24.58;;;2.30;99.90;;;;;;2096097;28;20124;-68
2022/02/01 02:08:55;;;;;;;69.55;23.25;;;2.30;99.90;;;;;;2096199;28;20033;-69
2022/02/01 02:09:56;;;;;;;59.35;22.65;;;2.30;99.90;;;;;;2097354;28;20031;-68
2022/02/01 02:11:14;;;;;;;59.40;22.48;;;2.30;99.90;;;;;;2097183;28;20042;-68
2022/02/01 02:12:36;;;;;;;60.95;22.80;;;2.30;99.90;;;;;;2096462;28;20039;-67
2022/02/01 02:14:57;;;;;;;59.15;22.13;;;2.20;99.90;;;;;;2096829;28;20036;-68
2022/02/01 02:16:01;;;;;;;60.20;21.92;;;2.20;99.90;;;;;;2096508;28;20059;-70
2022/02/01 02:17:03;;;;;;;62.78;22.27;;;2.30;99.90;;;;;;2097492;28;20120;-71
2022/02/01 02:18:04;;;;;;;63.20;22.58;;;2.20;99.90;;;;;;2096691;28;20032;-69
2022/02/01 02:19:05;;;;;;;63.38;22.77;;;2.20;99.90;;;;;;2097011;28;20570;-68
2022/02/01 02:20:06;;;;;;;72.22;22.73;;;2.20;99.90;;;;;;2097369;28;20017;-70
2022/02/01 02:21:07;;;;;;;66.18;22.92;;;2.20;99.90;;;;;;2096983;28;20047;-69
2022/02/01 02:22:08;;;;;;;65.05;22.73;;;2.20;99.90;;;;;;2087704;28;20064;-70
2022/02/01 02:23:09;;;;;;;74.43;24.00;;;2.20;99.90;;;;;;2088006;28;20025;-68
2022/02/01 02:24:10;;;;;;;69.47;23.65;;;2.20;99.90;;;;;;2096204;28;20069;-69
2022/02/01 02:25:11;;;;;;;66.57;23.58;;;2.20;99.90;;;;;;2097057;28;20070;-69
2022/02/01 02:26:13;;;;;;;68.38;23.95;;;2.20;99.90;;;;;;2096423;28;20025;-69
2022/02/01 02:27:15;;;;;;;68.47;22.80;;;2.20;99.90;;;;;;2097049;28;20024;-68
2022/02/01 02:28:19;;;;;;;64.15;23.77;;;2.10;99.90;;;;;;2097943;28;20475;-69
2022/02/01 02:29:19;;;;;;;59.92;22.35;;;2.10;99.90;;;;;;2098325;28;20032;-68
2022/02/01 02:30:20;;;;;;;68.53;22.30;;;2.10;99.90;;;;;;2098368;28;20064;-68
2022/02/01 02:31:22;;;;;;;61.15;23.13;;;2.10;99.90;;;;;;2098489;28;20024;-70
2022/02/01 02:32:24;;;;;;;56.83;22.35;;;2.10;99.90;;;;;;2097679;28;20074;-68
2022/02/01 02:33:26;;;;;;;50.63;21.45;;;2.10;99.90;;;;;;2097694;28;20542;-69
2022/02/01 02:34:26;;;;;;;61.78;22.02;;;2.10;99.90;;;;;;2098183;28;20107;-69
2022/02/01 02:35:31;;;;;;;65.60;21.65;;;2.10;99.90;;;;;;2097764;28;20372;-69
2022/02/01 02:36:35;;;;;;;62.63;21.88;;;2.10;99.90;;;;;;2098245;28;20024;-68
2022/02/01 02:37:36;;;;;;;55.25;21.58;;;2.10;99.90;;;;;;2098223;28;20025;-70
2022/02/01 02:38:54;;;;;;;61.50;21.63;;;2.10;99.90;;;;;;2098309;28;20028;-68
2022/02/01 02:40:18;;;;;;;59.35;22.15;;;2.10;99.90;;;;;;2097657;28;20083;-69
2022/02/01 02:45:09;;;;;;;64.15;21.73;;;2.10;99.90;;;;;;2097827;28;20047;-69
2022/02/01 02:46:09;;;;;;;54.55;21.30;;;2.10;99.90;;;;;;2097587;28;20025;-69
2022/02/01 02:47:10;;;;;;;56.83;21.77;;;2.10;99.90;;;;;;2097448;28;20052;-68
2022/02/01 02:48:12;;;;;;;61.30;22.17;;;2.10;99.90;;;;;;2097546;28;20051;-70
2022/02/01 02:49:17;;;;;;;61.05;21.42;;;2.10;99.90;;;;;;2098112;28;20040;-69
2022/02/01 02:50:22;;;;;;;51.55;20.27;;;2.10;99.90;;;;;;2098133;28;20430;-71
2022/02/01 02:51:23;;;;;;;62.22;21.20;;;2.10;99.90;;;;;;2097982;28;20082;-72
2022/02/01 02:52:26;;;;;;;57.88;20.27;;;2.10;99.90;;;;;;2097839;28;20036;-71
2022/02/01 02:53:26;;;;;;;51.50;19.65;;;2.10;99.90;;;;;;2097904;28;20028;-71
2022/02/01 02:54:28;;;;;;;55.97;19.17;;;2.10;99.90;;;;;;2097944;28;20115;-71
2022/02/01 02:55:31;;;;;;;60.40;19.63;;;2.10;99.90;;;;;;2097554;28;20052;-71
2022/02/01 02:56:33;;;;;;;57.83;18.92;;;2.10;99.90;;;;;;2098011;28;20031;-71
2022/02/01 02:57:34;;;;;;;58.67;18.58;;;2.10;99.90;;;;;;2098069;28;20025;-70
2022/02/01 02:58:34;;;;;;;50.25;18.55;;;2.10;99.90;;;;;;2098162;28;20016;-70
2022/02/01 02:59:36;;;;;;;57.50;19.13;;;2.10;99.90;;;;;;2089275;28;20021;-71
2022/02/01 03:00:38;;;;;;;56.83;19.17;;;2.10;99.90;;;;;;2089180;28;20033;-72
2022/02/01 03:01:39;;;;;;;52.40;17.88;;;2.10;99.90;;;;;;2097655;28;20020;-70
2022/02/01 03:02:40;;;;;;;50.72;17.90;;;2.10;99.90;;;;;;2097669;28;20444;-70
2022/02/01 03:03:40;;;;;;;54.03;18.25;;;2.10;99.90;;;;;;2097982;28;20090;-71
2022/02/01 03:04:41;;;;;;;48.63;18.67;;;2.10;99.90;;;;;;2097891;28;20150;-70
2022/02/01 03:05:41;;;;;;;51.30;17.50;;;2.10;99.90;;;;;;2096888;28;20082;-70
2022/02/01 03:06:43;;;;;;;47.25;17.48;;;2.20;99.90;;;;;;2097330;28;20032;-70
2022/02/01 03:07:43;;;;;;;49.50;17.20;;;2.20;99.90;;;;;;2097356;28;20384;-71
2022/02/01 03:08:44;;;;;;;50.92;17.45;;;2.20;99.90;;;;;;2097287;28;20056;-70
2022/02/01 03:09:44;;;;;;;46.75;17.48;;;2.20;99.90;;;;;;2097949;28;20063;-70
2022/02/01 03:10:45;;;;;;;49.63;16.92;;;2.20;99.90;;;;;;2097646;28;20028;-70
2022/02/01 03:11:48;;;;;;;48.70;17.20;;;2.20;99.90;;;;;;2097695;28;20040;-71
2022/02/01 03:13:59;;;;;;;46.33;16.85;;;2.20;99.90;;;;;;2097995;28;20035;-69
2022/02/01 03:15:20;;;;;;;46.92;17.08;;;2.20;99.90;;;;;;2097843;28;20020;-69
2022/02/01 03:19:47;;;;;;;40.25;15.80;;;2.20;99.90;;;;;;2097816;28;20043;-70
2022/02/01 03:20:06;;;;;;;39.78;15.95;;;2.30;99.90;;;;;;2097671;28;20035;-71
2022/02/01 03:21:07;;;;;;;42.42;15.73;;;2.30;99.90;;;;;;2097858;28;20550;-70
2022/02/01 03:22:08;;;;;;;40.67;15.95;;;2.30;99.90;;;;;;2097595;28;20056;-72
2022/02/01 03:23:09;;;;;;;42.55;16.00;;;2.30;99.90;;;;;;2097883;28;20028;-70
2022/02/01 03:24:10;;;;;;;40.33;15.85;;;2.20;99.90;;;;;;2097682;28;20659;-72
2022/02/01 03:25:11;;;;;;;51.03;17.48;;;2.20;99.90;;;;;;2097809;28;20078;-70
2022/02/01 03:26:12;;;;;;;44.00;16.67;;;2.20;99.90;;;;;;2097227;28;20036;-70
2022/02/01 03:27:13;;;;;;;41.28;16.60;;;2.20;99.90;;;;;;2097236;28;20111;-71
2022/02/01 03:28:13;;;;;;;42.35;16.05;;;2.20;99.90;;;;;;2089047;28;20021;-70
2022/02/01 03:29:14;;;;;;;44.53;16.90;;;2.20;99.90;;;;;;2097229;28;20482;-70
2022/02/01 03:30:14;;;;;;;43.85;17.10;;;2.20;99.90;;;;;;2097142;28;20129;-70
2022/02/01 03:31:17;;;;;;;44.47;18.73;;;2.10;99.90;;;;;;2097142;28;20063;-70
2022/02/01 03:32:22;;;;;;;36.80;17.35;;;2.10;99.90;;;;;;2097513;28;20398;-70
2022/02/01 03:33:23;;;;;;;42.75;17.65;;;2.10;99.90;;;;;;2097674;28;20068;-70
2022/02/01 03:34:23;;;;;;;41.95;18.08;;;2.10;99.90;;;;;;2097733;28;20023;-71
2022/02/01 03:35:24;;;;;;;45.15;18.52;;;2.10;99.90;;;;;;2097234;28;20471;-70
2022/02/01 03:36:25;;;;;;;43.97;17.98;;;2.20;99.90;;;;;;2097023;28;20029;-70
2022/02/01 03:37:25;;;;;;;38.78;17.35;;;2.20;99.90;;;;;;2096968;28;20029;-70
2022/02/01 03:38:26;;;;;;;40.47;18.45;;;2.10;99.90;;;;;;2097689;28;20678;-69
2022/02/01 03:39:27;;;;;;;38.60;17.65;;;2.10;99.90;;;;;;2097574;28;20039;-69
2022/02/01 03:40:27;;;;;;;40.53;17.80;;;2.10;99.90;;;;;;2097587;28;20036;-69
2022/02/01 03:41:28;;;;;;;38.42;17.70;;;2.10;99.90;;;;;;2097424;28;20523;-69
2022/02/01 03:42:29;;;;;;;51.45;18.75;;;2.10;99.90;;;;;;2097582;28;20117;-69
2022/02/01 03:43:29;;;;;;;43.83;17.65;;;2.10;99.90;;;;;;2096898;28;20028;-68
2022/02/01 03:44:33;;;;;;;36.83;17.42;;;2.10;99.90;;;;;;2096731;28;20046;-69
2022/02/01 03:45:33;;;;;;;40.15;18.25;;;2.10;99.90;;;;;;2097076;28;20040;-69
2022/02/01 03:46:34;;;;;;;37.83;17.55;;;2.10;99.90;;;;;;2097898;28;20024;-69
2022/02/01 03:47:34;;;;;;;39.60;18.10;;;2.10;99.90;;;;;;2097855;28;20021;-69
2022/02/01 03:48:35;;;;;;;42.17;17.73;;;2.10;99.90;;;;;;2097696;28;20028;-70
2022/02/01 03:49:40;;;;;;;42.83;18.60;;;2.10;99.90;;;;;;2098110;28;20081;-70
2022/02/01 03:50:41;;;;;;;45.65;19.17;;;2.10;99.90;;;;;;2097892;28;20039;-70
2022/02/01 03:51:42;;;;;;;42.67;19.05;;;2.10;99.90;;;;;;2098107;28;20083;-70
2022/02/01 03:52:42;;;;;;;41.80;19.92;;;2.10;99.90;;;;;;2097879;28;20028;-69
2022/02/01 03:53:43;;;;;;;40.17;19.42;;;2.10;99.90;;;;;;2089798;28;20028;-70
2022/02/01 03:54:43;;;;;;;45.85;20.95;;;2.10;99.90;;;;;;2089783;28;20395;-71
2022/02/01 03:55:44;;;;;;;51.80;21.08;;;2.10;99.90;;;;;;2097593;28;20155;-70
2022/02/01 03:56:45;;;;;;;40.45;20.40;;;2.10;99.90;;;;;;2098961;28;20028;-70
2022/02/01 03:57:45;;;;;;;37.22;19.40;;;2.10;99.90;;;;;;2098471;28;20032;-70
2022/02/01 03:58:46;;;;;;;49.80;21.58;;;2.10;99.90;;;;;;2097653;28;20086;-70
2022/02/01 03:59:46;;;;;;;39.38;21.08;;;2.20;99.90;;;;;;2097277;28;20063;-70
2022/02/01 04:00:47;;;;;;;46.30;20.73;;;2.20;99.90;;;;;;2098249;28;20115;-70
2022/02/01 04:01:48;;;;;;;51.42;22.17;;;2.20;99.90;;;;;;2097785;28;20032;-70
2022/02/01 04:02:48;;;;;;;47.40;21.58;;;2.20;99.90;;;;;;2097337;28;20021;-70
2022/02/01 04:03:49;;;;;;;53.17;22.58;;;2.10;99.90;;;;;;2097504;28;20628;-70
2022/02/01 04:04:53;;;;;;;52.03;22.88;;;2.20;99.90;;;;;;2097737;28;20093;-70
2022/02/01 04:05:53;;;;;;;48.20;22.80;;;2.10;99.90;;;;;;2097553;28;20094;-71
2022/02/01 04:06:55;;;;;;;51.85;22.85;;;2.20;99.90;;;;;;2097847;28;20137;-70
2022/02/01 04:07:57;;;;;;;48.83;23.20;;;2.20;99.90;;;;;;2098026;28;20025;-70
2022/02/01 04:08:57;;;;;;;50.72;23.45;;;2.10;99.90;;;;;;2097882;28;20603;-70
2022/02/01 04:09:58;;;;;;;53.03;23.38;;;2.20;99.90;;;;;;2096797;28;20033;-70
2022/02/01 04:10:58;;;;;;;49.70;23.65;;;2.20;99.90;;;;;;2097158;28;20058;-70
2022/02/01 04:12:01;;;;;;;52.97;23.13;;;2.20;99.90;;;;;;2097095;28;20032;-70
2022/02/01 04:13:04;;;;;;;46.33;21.95;;;2.20;99.90;;;;;;2097881;28;20030;-70
2022/02/01 04:14:04;;;;;;;50.90;23.10;;;2.10;99.90;;;;;;2098717;28;20021;-70
2022/02/01 04:15:07;;;;;;;50.85;23.15;;;2.10;99.90;;;;;;2097922;28;20056;-70
2022/02/01 04:16:07;;;;;;;52.35;23.48;;;2.20;99.90;;;;;;2089248;28;20679;-71
2022/02/01 04:17:10;;;;;;;55.00;24.05;;;2.20;99.90;;;;;;2098602;28;20020;-70
2022/02/01 04:18:11;;;;;;;55.90;25.05;;;2.10;99.90;;;;;;2099208;28;20025;-69
2022/02/01 04:19:12;;;;;;;55.17;25.05;;;2.20;99.90;;;;;;2098777;28;20025;-69
2022/02/01 04:20:13;;;;;;;61.13;25.77;;;2.20;99.90;;;;;;2089426;28;20035;-72
2022/02/01 04:21:14;;;;;;;60.42;26.10;;;2.20;99.90;;;;;;2090009;28;20056;-70
2022/02/01 04:22:15;;;;;;;60.33;26.13;;;2.20;99.90;;;;;;2099305;28;20024;-70
2022/02/01 04:23:16;;;;;;;58.00;25.42;;;2.20;99.90;;;;;;2098948;28;20463;-70
2022/02/01 04:24:16;;;;;;;55.05;26.50;;;2.10;99.90;;;;;;2098628;28;20042;-70
2022/02/01 04:25:17;;;;;;;65.18;28.17;;;2.20;99.90;;;;;;2098966;28;20059;-70
2022/02/01 04:26:17;;;;;;;60.13;27.48;;;2.20;99.90;;;;;;2098423;28;20177;-70
2022/02/01 04:27:30;;;;;;;63.40;27.17;;;2.20;99.90;;;;;;2098527;28;20025;-70
2022/02/01 04:28:31;;;;;;;57.85;26.80;;;2.20;99.90;;;;;;2098822;28;20056;-71
2022/02/01 04:29:33;;;;;;;64.15;27.63;;;2.20;99.90;;;;;;2099077;28;20528;-71
2022/02/01 04:30:33;;;;;;;60.72;27.17;;;2.20;99.90;;;;;;2097735;28;20020;-71
2022/02/01 04:31:34;;;;;;;63.58;27.85;;;2.20;99.90;;;;;;2096799;28;20047;-70
2022/02/01 04:32:39;;;;;;;59.30;26.77;;;2.20;99.90;;;;;;2096979;28;20024;-71
2022/02/01 04:33:40;;;;;;;66.55;28.02;;;2.20;99.90;;;;;;2098156;28;20028;-70
2022/02/01 04:34:41;;;;;;;60.58;28.02;;;2.20;99.90;;;;;;2098007;28;20024;-70
2022/02/01 04:35:41;;;;;;;65.10;27.73;;;2.10;99.90;;;;;;2097729;28;20051;-70
2022/02/01 04:36:42;;;;;;;63.03;27.08;;;2.20;99.90;;;;;;2097922;28;20121;-71
2022/02/01 04:37:44;;;;;;;58.60;27.08;;;2.20;99.90;;;;;;2097737;28;20033;-70
2022/02/01 04:38:53;;;;;;;64.93;27.63;;;2.20;99.90;;;;;;2097977;28;20028;-69
2022/02/01 04:39:54;;;;;;;63.55;27.23;;;2.20;99.90;;;;;;2097206;28;20037;-69
2022/02/01 04:40:55;;;;;;;60.28;27.10;;;2.20;99.90;;;;;;2088670;28;20120;-70
2022/02/01 04:41:55;;;;;;;61.40;27.73;;;2.20;99.90;;;;;;2096944;28;20028;-69
2022/02/01 04:42:56;;;;;;;58.67;26.98;;;2.20;99.90;;;;;;2097605;28;20414;-70
2022/02/01 04:44:00;;;;;;;62.20;26.55;;;2.20;99.90;;;;;;2096597;28;20037;-69
2022/02/01 04:45:01;;;;;;;56.83;26.17;;;2.20;99.90;;;;;;2089263;28;20052;-71
2022/02/01 04:46:04;;;;;;;57.72;26.67;;;2.10;99.90;;;;;;2096278;28;20016;-70
2022/02/01 04:47:05;;;;;;;61.58;27.45;;;2.10;99.90;;;;;;2097351;28;20098;-69
2022/02/01 04:48:05;;;;;;;55.92;26.67;;;2.20;99.90;;;;;;2097257;28;20032;-69
2022/02/01 04:49:09;;;;;;;60.38;27.20;;;2.20;99.90;;;;;;2096735;28;20044;-71
2022/02/01 04:50:12;;;;;;;57.00;25.63;;;2.20;99.90;;;;;;2096981;28;20040;-71
2022/02/01 04:51:18;;;;;;;61.47;26.20;;;2.20;99.90;;;;;;2097305;28;20024;-69
2022/02/01 04:52:18;;;;;;;51.88;25.05;;;2.20;99.90;;;;;;2097751;28;20437;-69
2022/02/01 04:53:19;;;;;;;56.95;25.77;;;2.20;99.90;;;;;;2097078;28;20032;-69
2022/02/01 04:54:19;;;;;;;55.60;24.95;;;2.20;99.90;;;;;;2097413;28;20474;-71
2022/02/01 04:55:22;;;;;;;52.30;24.52;;;2.20;99.90;;;;;;2097763;28;20028;-71
2022/02/01 04:56:25;;;;;;;57.67;26.70;;;2.20;99.90;;;;;;2097489;28;20111;-70
2022/02/01 04:57:25;;;;;;;61.90;26.95;;;2.20;99.90;;;;;;2097372;28;20042;-69
2022/02/01 04:58:26;;;;;;;56.97;26.20;;;2.20;99.90;;;;;;2097574;28;20028;-70
2022/02/01 04:59:27;;;;;;;55.55;26.05;;;2.30;99.90;;;;;;2098321;28;20029;-69
2022/02/01 05:00:29;;;;;;;49.95;24.85;;;2.30;99.90;;;;;;2099062;28;20187;-71
2022/02/01 05:01:39;;;;;;;53.08;26.48;;;2.30;99.90;;;;;;2098062;28;20090;-70
2022/02/01 05:02:39;;;;;;;52.10;24.92;;;2.30;99.90;;;;;;2098780;28;20078;-70
2022/02/01 05:03:40;;;;;;;58.53;26.45;;;2.30;99.90;;;;;;2098557;28;20029;-70
2022/02/01 05:04:41;;;;;;;57.35;25.58;;;2.30;99.90;;;;;;2098145;28;20039;-71
2022/02/01 05:05:42;;;;;;;53.67;26.25;;;2.30;99.90;;;;;;2097972;28;20051;-71
2022/02/01 05:06:43;;;;;;;51.47;26.33;;;2.30;99.90;;;;;;2097991;28;20044;-70
2022/02/01 05:07:43;;;;;;;54.80;26.55;;;2.20;99.90;;;;;;2097528;28;20020;-70
2022/02/01 05:08:44;;;;;;;57.40;26.10;;;2.20;99.90;;;;;;2097650;28;20078;-70
2022/02/01 05:09:44;;;;;;;56.35;26.48;;;2.20;99.90;;;;;;2097174;28;20095;-71
2022/02/01 05:10:45;;;;;;;51.05;25.77;;;2.20;99.90;;;;;;2097359;28;20099;-70
2022/02/01 05:11:47;;;;;;;55.88;25.67;;;2.20;99.90;;;;;;2097608;28;20079;-72
2022/02/01 05:12:50;;;;;;;53.40;26.52;;;2.20;99.90;;;;;;2103395;28;20032;-69
2022/02/01 05:15:05;;;;;;;52.80;25.25;;;2.10;99.90;;;;;;2105551;28;20044;-71
2022/02/01 05:16:10;;;;;;;53.25;25.63;;;2.10;99.90;;;;;;2105569;28;20076;-69
2022/02/01 05:17:11;;;;;;;52.35;24.83;;;2.10;99.90;;;;;;2095938;28;20028;-69
2022/02/01 05:18:19;;;;;;;55.38;25.63;;;2.10;99.90;;;;;;2096121;28;20088;-69
2022/02/01 05:20:45;;;;;;;51.15;24.83;;;2.10;99.90;;;;;;2097501;28;20033;-69
2022/02/01 05:21:46;;;;;;;52.28;25.08;;;2.10;99.90;;;;;;2104479;28;20055;-68
2022/02/01 05:22:47;;;;;;;50.58;24.77;;;2.10;99.90;;;;;;2105015;28;20037;-69
2022/02/01 05:23:50;;;;;;;49.15;25.58;;;2.10;99.90;;;;;;2101438;28;20479;-69
2022/02/01 05:24:54;;;;;;;46.80;24.20;;;2.10;99.90;;;;;;2098080;28;20029;-70
2022/02/01 05:25:57;;;;;;;49.60;23.73;;;2.10;99.90;;;;;;2097506;28;20107;-70
2022/02/01 05:26:59;;;;;;;51.83;24.67;;;2.10;99.90;;;;;;2097053;28;20029;-70
2022/02/01 05:28:00;;;;;;;48.28;23.58;;;2.10;99.90;;;;;;2088816;28;20131;-70
2022/02/01 05:29:01;;;;;;;48.78;23.95;;;2.10;99.90;;;;;;2097276;28;20017;-70
2022/02/01 05:30:01;;;;;;;50.17;24.15;;;2.10;99.90;;;;;;2097473;28;20029;-70
2022/02/01 05:31:02;;;;;;;49.35;23.50;;;2.10;99.90;;;;;;2097366;28;20032;-69
2022/02/01 05:32:15;;;;;;;45.67;22.15;;;2.10;99.90;;;;;;2097568;28;20073;-70
2022/02/01 05:33:16;;;;;;;49.92;23.55;;;2.10;99.90;;;;;;2091224;28;20033;-70
2022/02/01 05:34:17;;;;;;;45.40;22.27;;;2.10;99.90;;;;;;2090009;28;20036;-70
2022/02/01 05:35:18;;;;;;;42.10;21.20;;;2.10;99.90;;;;;;2098386;28;20036;-70
2022/02/01 05:36:18;;;;;;;44.78;21.88;;;2.10;99.90;;;;;;2098583;28;20032;-71
2022/02/01 05:37:19;;;;;;;44.03;21.42;;;2.10;99.90;;;;;;2099251;28;20060;-70
2022/02/01 05:38:20;;;;;;;42.30;21.10;;;2.20;99.90;;;;;;2099462;28;20068;-70
2022/02/01 05:39:23;;;;;;;39.95;21.23;;;2.20;99.90;;;;;;2099590;28;20029;-71
2022/02/01 05:40:26;;;;;;;42.92;20.92;;;2.20;99.90;;;;;;2098799;28;20033;-71
2022/02/01 05:41:27;;;;;;;38.35;20.73;;;2.20;99.90;;;;;;2089055;28;20482;-70
2022/02/01 05:42:39;;;;;;;41.38;20.27;;;2.20;99.90;;;;;;2096620;28;20491;-70
2022/02/01 05:43:42;;;;;;;40.35;20.00;;;2.20;99.90;;;;;;2097110;28;20036;-70
2022/02/01 05:44:44;;;;;;;42.63;20.38;;;2.20;99.90;;;;;;2096936;28;20040;-70
2022/02/01 05:45:45;;;;;;;41.30;20.25;;;2.20;99.90;;;;;;2096610;28;20021;-70
2022/02/01 05:46:45;;;;;;;42.05;20.90;;;2.20;99.90;;;;;;2096395;28;20082;-69
2022/02/01 05:47:47;;;;;;;42.50;21.13;;;2.20;99.90;;;;;;2096502;28;20058;-70
2022/02/01 05:48:47;;;;;;;40.33;19.58;;;2.20;99.90;;;;;;2096570;28;20034;-70
2022/02/01 05:49:48;;;;;;;41.42;19.55;;;2.20;99.90;;;;;;2079761;28;20044;-69
2022/02/01 05:50:51;;;;;;;39.90;20.42;;;2.20;99.90;;;;;;2088506;28;20029;-70
2022/02/01 05:51:52;;;;;;;42.05;20.00;;;2.20;99.90;;;;;;2096920;28;20111;-69
2022/02/01 05:52:52;;;;;;;42.15;20.23;;;2.20;99.90;;;;;;2097200;28;20028;-71
2022/02/01 05:53:53;;;;;;;37.97;20.17;;;2.20;99.90;;;;;;2096758;28;20060;-70
2022/02/01 05:54:54;;;;;;;39.10;19.48;;;2.20;99.90;;;;;;2097098;28;20028;-70
2022/02/01 05:55:54;;;;;;;38.75;19.30;;;2.20;99.90;;;;;;2096833;28;20029;-69
2022/02/01 05:56:55;;;;;;;39.28;19.33;;;2.30;99.90;;;;;;2097233;28;20040;-70
2022/02/01 05:57:56;;;;;;;38.60;20.00;;;2.30;99.90;;;;;;2088153;28;20027;-69
2022/02/01 05:58:56;;;;;;;35.22;19.08;;;2.30;99.90;;;;;;2088299;28;20395;-69
2022/02/01 05:59:57;;;;;;;37.30;20.02;;;2.20;99.90;;;;;;2096415;28;20128;-69
2022/02/01 06:00:57;;;;;;;37.95;19.23;;;2.30;99.90;;;;;;2088210;28;20036;-69
2022/02/01 06:02:00;;;;;;;40.92;19.13;;;2.30;99.90;;;;;;2088012;28;20044;-68
2022/02/01 06:03:01;;;;;;;39.53;19.70;;;2.20;99.90;;;;;;2097761;28;20086;-69
2022/02/01 06:04:01;;;;;;;39.70;18.95;;;2.20;99.90;;;;;;2099620;28;20535;-70
2022/02/01 06:05:02;;;;;;;36.78;18.45;;;2.20;99.90;;;;;;2098311;28;20116;-69
2022/02/01 06:06:03;;;;;;;37.30;18.48;;;2.20;99.90;;;;;;2090521;28;20032;-70
2022/02/01 06:07:03;;;;;;;36.22;17.77;;;2.20;99.90;;;;;;2100341;28;20127;-70
2022/02/01 06:08:04;;;;;;;35.28;17.63;;;2.20;99.90;;;;;;2101098;28;20028;-70
2022/02/01 06:09:05;;;;;;;34.28;17.92;;;2.20;99.90;;;;;;2101316;28;20551;-70
2022/02/01 06:10:07;;;;;;;36.92;17.65;;;2.20;99.90;;;;;;2101280;28;20037;-70
2022/02/01 06:11:08;;;;;;;36.17;18.50;;;2.30;99.90;;;;;;2101388;28;20021;-70
2022/02/01 06:12:08;;;;;;;39.95;18.25;;;2.20;99.90;;;;;;2101635;28;20396;-69
2022/02/01 06:13:09;;;;;;;35.50;17.52;;;2.20;99.90;;;;;;2101049;28;20060;-70
2022/02/01 06:14:10;;;;;;;34.13;17.75;;;2.20;99.90;;;;;;2100915;28;20031;-70
2022/02/01 06:15:11;;;;;;;34.42;18.00;;;2.20;99.90;;;;;;2100877;28;20036;-70
2022/02/01 06:16:12;;;;;;;37.85;17.90;;;2.20;99.90;;;;;;2100006;28;20036;-69
2022/02/01 06:17:12;;;;;;;34.15;16.90;;;2.20;99.90;;;;;;2092569;28;20452;-72
2022/02/01 06:18:13;;;;;;;33.08;18.15;;;2.30;99.90;;;;;;2100332;28;20028;-70
2022/02/01 06:19:13;;;;;;;35.40;18.00;;;2.20;99.90;;;;;;2101242;28;20028;-70
2022/02/01 06:20:15;;;;;;;36.33;18.50;;;2.20;99.90;;;;;;2101032;28;20031;-68
2022/02/01 06:21:18;;;;;;;39.90;18.17;;;2.20;99.90;;;;;;2102433;28;20086;-69
2022/02/01 06:22:19;;;;;;;35.13;17.10;;;2.20;99.90;;;;;;2101138;28;20039;-68
2022/02/01 06:23:20;;;;;;;37.88;18.10;;;2.20;99.90;;;;;;2092688;28;20037;-69
2022/02/01 06:24:21;;;;;;;36.47;18.35;;;2.20;99.90;;;;;;2093832;28;20052;-70
2022/02/01 06:25:47;;;;;;;36.80;18.55;;;2.20;99.90;;;;;;2102329;28;20422;-69
2022/02/01 06:26:48;;;;;;;36.72;17.77;;;2.20;99.90;;;;;;2096219;28;20025;-69
2022/02/01 06:27:49;;;;;;;37.30;17.90;;;2.20;99.90;;;;;;2092670;28;20029;-69
2022/02/01 06:28:49;;;;;;;34.53;17.58;;;2.20;99.90;;;;;;2100874;28;20537;-69
2022/02/01 06:29:53;;;;;;;35.63;18.17;;;2.20;99.90;;;;;;2101432;28;20017;-69
2022/02/01 06:30:58;;;;;;;29.70;16.85;;;2.20;99.90;;;;;;2099507;28;20052;-69